Time;durP1;ratioP1;P1;durP2;ratioP2;P2;SDS_P1;SDS_P2;PMS_P1;PMS_P2;Temp;Humidity;BMP_temperature;BMP_pressure;BME280_temperature;BME280_humidity;BME280_pressure;Samples;Min_cycle;Max_cycle;Signal;HPM_P1;HPM_P2
2020/12/25 00:02:11;;;;;;;1.50;0.80;;;7.20;75.70;;;;;;6185820;23;20147;-71
2020/12/25 00:05:25;;;;;;;1.30;0.70;;;7.20;75.80;;;;;;6185286;23;20158;-71
2020/12/25 00:07:55;;;;;;;1.30;0.60;;;7.10;75.60;;;;;;6186334;23;20170;-71
2020/12/25 00:17:10;;;;;;;1.83;0.80;;;7.20;74.90;;;;;;6184125;23;20289;-71
2020/12/25 00:19:44;;;;;;;1.83;0.82;;;7.10;75.00;;;;;;6185706;23;20151;-72
2020/12/25 00:22:17;;;;;;;19.08;12.00;;;7.10;75.10;;;;;;6185119;23;20648;-71
2020/12/25 00:25:00;;;;;;;3.05;1.77;;;7.00;75.00;;;;;;6185983;23;20152;-72
2020/12/25 00:27:29;;;;;;;3.00;1.52;;;7.00;75.30;;;;;;6185932;23;20158;-72
2020/12/25 00:30:32;;;;;;;2.33;1.00;;;7.10;75.20;;;;;;6185859;23;20241;-73
2020/12/25 00:33:02;;;;;;;1.40;0.80;;;7.10;75.30;;;;;;6185819;23;20170;-72
2020/12/25 00:39:25;;;;;;;2.00;0.75;;;7.10;74.70;;;;;;6185634;23;20220;-71
2020/12/25 00:45:04;;;;;;;2.58;1.00;;;7.10;74.90;;;;;;6185634;23;20233;-72
2020/12/25 00:54:13;;;;;;;2.22;0.93;;;7.20;74.50;;;;;;6149243;23;20202;-73
2020/12/25 01:08:09;;;;;;;;;;;;;;;;;;;;;
2020/12/25 01:14:43;;;;;;;1.65;0.70;;;7.20;74.60;;;;;;5925113;24;20216;-73
2020/12/25 01:31:20;;;;;;;2.08;1.15;;;7.20;74.50;;;;;;5871891;24;20228;-73
2020/12/25 01:45:13;;;;;;;1.70;1.20;;;7.10;74.70;;;;;;6095545;23;20164;-73
2020/12/25 01:48:31;;;;;;;2.08;1.00;;;7.10;74.50;;;;;;6095448;23;20165;-73
2020/12/25 01:58:39;;;;;;;1.63;1.02;;;7.00;73.40;;;;;;6066708;23;20205;-73
2020/12/25 02:01:50;;;;;;;1.60;0.80;;;6.90;73.30;;;;;;6153017;23;20711;-74
2020/12/25 02:11:58;;;;;;;1.52;0.90;;;6.90;73.40;;;;;;6067200;23;20710;-72
2020/12/25 02:15:16;;;;;;;1.52;1.13;;;6.90;73.60;;;;;;6066688;23;20237;-72
2020/12/25 02:18:38;;;;;;;1.38;0.70;;;6.90;73.90;;;;;;6066967;23;20162;-73
2020/12/25 02:28:49;;;;;;;1.50;0.98;;;7.10;73.90;;;;;;5926454;24;20542;-71
2020/12/25 02:35:35;;;;;;;1.40;0.90;;;7.00;73.70;;;;;;5925482;24;20608;-71
2020/12/25 02:45:45;;;;;;;1.60;0.98;;;6.60;70.60;;;;;;5764844;24;20179;-72
2020/12/25 03:09:48;;;;;;;1.50;1.02;;;6.20;69.20;;;;;;5855219;24;20220;-73
2020/12/25 03:12:55;;;;;;;1.60;0.93;;;6.10;69.40;;;;;;5870205;24;20174;-73
2020/12/25 03:22:49;;;;;;;1.85;1.17;;;6.00;70.40;;;;;;5898280;24;20173;-72
2020/12/25 03:43:04;;;;;;;1.33;0.70;;;6.00;70.20;;;;;;6245708;23;20266;-72
2020/12/25 03:46:22;;;;;;;;;;;;;;;;;;;;;
2020/12/25 03:49:36;;;;;;;1.40;0.80;;;5.90;69.20;;;;;;6245629;23;20248;-72
2020/12/25 03:56:08;;;;;;;1.70;1.10;;;5.80;69.20;;;;;;6241838;23;20168;-73
2020/12/25 03:59:14;;;;;;;1.70;1.00;;;5.80;69.40;;;;;;6243049;23;20180;-74
2020/12/25 04:02:26;;;;;;;1.50;0.90;;;5.80;69.00;;;;;;6243522;23;20473;-73
2020/12/25 04:05:48;;;;;;;1.77;1.10;;;5.80;69.60;;;;;;6153046;23;20159;-73
2020/12/25 04:09:08;;;;;;;2.33;1.48;;;5.70;69.90;;;;;;6035994;23;20194;-73
2020/12/25 04:50:07;;;;;;;1.80;1.30;;;5.40;73.60;;;;;;5926071;24;20259;-73
2020/12/25 04:56:58;;;;;;;1.60;0.85;;;5.40;74.10;;;;;;5926606;24;20241;-73
2020/12/25 05:40:34;;;;;;;1.50;0.93;;;5.10;75.40;;;;;;5898056;24;20199;-73
2020/12/25 05:50:52;;;;;;;2.13;1.00;;;5.10;75.40;;;;;;5792667;24;20231;-73
2020/12/25 05:57:25;;;;;;;1.80;1.08;;;5.10;74.50;;;;;;5765283;24;20209;-73
2020/12/25 06:04:05;;;;;;;1.50;0.90;;;5.10;74.60;;;;;;5898970;24;20156;-74
2020/12/25 06:07:18;;;;;;;1.60;0.93;;;5.10;73.60;;;;;;5899130;24;20208;-73
2020/12/25 06:14:12;;;;;;;2.85;0.98;;;5.10;73.20;;;;;;5981950;24;20159;-73
2020/12/25 06:20:55;;;;;;;1.40;0.70;;;5.10;73.20;;;;;;5925496;24;20210;-74
2020/12/25 06:23:55;;;;;;;1.50;0.80;;;5.10;73.00;;;;;;5871750;24;20202;-73
2020/12/25 06:30:39;;;;;;;1.70;0.90;;;5.10;73.30;;;;;;5981114;24;20206;-73
2020/12/25 06:33:51;;;;;;;1.95;1.23;;;5.10;73.20;;;;;;5962369;23;20537;-73
2020/12/25 06:51:28;;;;;;;1.40;0.85;;;5.10;73.20;;;;;;5953994;24;20532;-73
2020/12/25 06:58:14;;;;;;;1.60;0.93;;;5.10;72.80;;;;;;5979963;24;20216;-74
2020/12/25 07:01:29;;;;;;;1.88;1.00;;;5.10;73.60;;;;;;5980628;24;20581;-72
2020/12/25 07:08:02;;;;;;;1.60;1.08;;;5.10;73.80;;;;;;5981556;24;20159;-73
2020/12/25 07:11:20;;;;;;;2.05;1.33;;;5.10;73.70;;;;;;5966624;24;20771;-73
2020/12/25 07:14:37;;;;;;;1.90;1.30;;;5.10;73.60;;;;;;6087192;23;20662;-73
2020/12/25 07:24:36;;;;;;;1.88;1.20;;;5.10;74.40;;;;;;6036701;23;20213;-73
2020/12/25 07:50:42;;;;;;;2.63;1.90;;;5.20;74.40;;;;;;6246357;23;20192;-71
2020/12/25 07:53:16;;;;;;;2.83;2.03;;;5.20;74.10;;;;;;6246428;23;20454;-71
2020/12/25 07:55:49;;;;;;;2.80;2.28;;;5.30;74.00;;;;;;6245707;23;20161;-71
2020/12/25 07:58:31;;;;;;;9.35;6.50;;;5.30;74.20;;;;;;6246389;23;20158;-71
2020/12/25 08:00:58;;;;;;;5.47;4.95;;;5.30;74.10;;;;;;6245772;23;20200;-71
2020/12/25 08:03:25;;;;;;;3.90;3.50;;;5.40;75.00;;;;;;6246650;23;20176;-72
2020/12/25 08:15:59;;;;;;;13.10;8.82;;;5.60;72.90;;;;;;6246362;23;20140;-71
2020/12/25 08:28:01;;;;;;;4.45;3.40;;;5.70;72.80;;;;;;6245199;23;20211;-72
2020/12/25 08:30:39;;;;;;;12.25;9.93;;;5.70;72.60;;;;;;6245111;23;20276;-72
2020/12/25 08:33:07;;;;;;;2.92;2.42;;;5.80;72.90;;;;;;6243762;23;20189;-72
2020/12/25 08:36:10;;;;;;;2.42;1.85;;;5.80;72.70;;;;;;6246380;23;20184;-72
2020/12/25 08:38:43;;;;;;;2.45;2.03;;;5.90;72.80;;;;;;6245153;23;20216;-72
2020/12/25 08:41:37;;;;;;;5.50;4.78;;;6.00;73.10;;;;;;6245053;23;20153;-72
2020/12/25 08:44:11;;;;;;;10.18;6.78;;;6.00;72.40;;;;;;6246005;23;20165;-72
2020/12/25 08:53:51;;;;;;;7.13;6.05;;;6.20;72.20;;;;;;6243753;23;20268;-72
2020/12/25 08:56:19;;;;;;;9.95;8.95;;;6.30;71.90;;;;;;6245181;23;20443;-72
2020/12/25 09:05:30;;;;;;;8.88;6.03;;;6.40;70.90;;;;;;6246230;23;20451;-72
2020/12/25 09:08:39;;;;;;;9.25;7.78;;;6.50;70.40;;;;;;6245527;23;20216;-74
2020/12/25 09:11:13;;;;;;;11.05;6.95;;;6.60;70.60;;;;;;6242915;23;20189;-74
2020/12/25 09:13:47;;;;;;;7.60;4.93;;;6.70;70.50;;;;;;6242926;23;20200;-75
2020/12/25 09:16:28;;;;;;;3.95;2.92;;;6.80;70.20;;;;;;6241657;23;20162;-73
2020/12/25 09:19:00;;;;;;;2.10;1.50;;;6.90;69.60;;;;;;6229649;23;20898;-74
2020/12/25 09:21:30;;;;;;;2.83;2.20;;;6.90;70.00;;;;;;6234454;23;20521;-74
2020/12/25 09:23:59;;;;;;;2.67;2.00;;;7.00;67.90;;;;;;6240335;23;20165;-74
2020/12/25 09:26:27;;;;;;;2.60;1.83;;;6.90;68.10;;;;;;6235692;23;20180;-74
2020/12/25 09:29:04;;;;;;;2.75;2.10;;;6.90;68.10;;;;;;6229443;23;20446;-75
2020/12/25 09:31:31;;;;;;;2.60;2.20;;;6.90;68.10;;;;;;6234614;23;20189;-74
2020/12/25 09:34:04;;;;;;;3.35;2.30;;;6.90;67.50;;;;;;6240883;23;20767;-74
2020/12/25 09:36:31;;;;;;;2.15;1.63;;;6.90;67.10;;;;;;6235682;23;20166;-74
2020/12/25 09:38:57;;;;;;;3.00;2.08;;;6.90;66.80;;;;;;6230931;23;20617;-74
2020/12/25 09:45:09;;;;;;;2.40;1.90;;;6.90;67.10;;;;;;6242848;23;20149;-74
2020/12/25 09:48:12;;;;;;;2.67;1.67;;;6.90;66.60;;;;;;6243047;23;20201;-74
2020/12/25 09:53:49;;;;;;;2.65;2.05;;;6.80;66.40;;;;;;6231767;23;20173;-77
2020/12/25 09:56:18;;;;;;;3.03;1.58;;;6.80;66.60;;;;;;6236235;23;20170;-74
2020/12/25 09:58:49;;;;;;;2.33;2.00;;;6.70;66.30;;;;;;6234199;23;20165;-81
2020/12/25 10:01:19;;;;;;;5.00;3.65;;;6.70;65.40;;;;;;6225865;23;20205;-74
2020/12/25 10:04:01;;;;;;;3.88;2.70;;;6.60;65.80;;;;;;6215580;23;20177;-76
2020/12/25 10:06:46;;;;;;;2.05;1.40;;;6.50;66.00;;;;;;6223069;23;20331;-80
2020/12/25 10:09:18;;;;;;;2.65;2.10;;;6.50;66.30;;;;;;6224999;23;20161;-75
2020/12/25 10:11:55;;;;;;;2.20;1.85;;;6.50;66.60;;;;;;6246087;23;20177;-75
2020/12/25 10:18:32;;;;;;;2.05;1.52;;;6.40;67.00;;;;;;6244277;23;20177;-72
2020/12/25 10:21:00;;;;;;;3.03;1.80;;;6.30;67.00;;;;;;6245535;23;20154;-72
2020/12/25 10:26:55;;;;;;;2.50;1.80;;;6.30;68.00;;;;;;6236230;23;20724;-72
2020/12/25 10:29:33;;;;;;;2.50;2.20;;;6.30;68.70;;;;;;6222540;23;20489;-72
2020/12/25 10:32:00;;;;;;;2.42;1.60;;;6.30;68.40;;;;;;6217603;23;20166;-72
2020/12/25 10:34:27;;;;;;;2.45;1.90;;;6.30;68.20;;;;;;6232227;23;20166;-75
2020/12/25 10:36:55;;;;;;;2.75;2.20;;;6.30;67.90;;;;;;6221934;23;20589;-73
2020/12/25 10:39:23;;;;;;;2.88;2.22;;;6.30;67.90;;;;;;6229339;23;20660;-72
2020/12/25 10:41:55;;;;;;;2.13;1.65;;;6.30;68.10;;;;;;6245114;23;20212;-79
2020/12/25 10:47:27;;;;;;;3.45;2.65;;;6.30;68.20;;;;;;6244745;23;20192;-72
2020/12/25 10:50:18;;;;;;;3.03;2.55;;;6.40;68.10;;;;;;6244176;23;20185;-72
2020/12/25 10:52:47;;;;;;;2.70;1.95;;;6.40;68.00;;;;;;6205398;23;20166;-71
2020/12/25 10:55:30;;;;;;;3.90;3.45;;;6.40;67.20;;;;;;6215947;23;20151;-73
2020/12/25 10:57:56;;;;;;;13.25;8.30;;;6.40;67.20;;;;;;6216194;23;20170;-72
2020/12/25 11:00:46;;;;;;;3.17;2.03;;;6.40;67.10;;;;;;6214799;23;20179;-73
2020/12/25 11:03:13;;;;;;;4.97;2.15;;;6.40;67.00;;;;;;6213438;23;20245;-73
2020/12/25 11:05:43;;;;;;;3.25;2.05;;;6.40;68.30;;;;;;6207698;23;20499;-73
2020/12/25 11:11:37;;;;;;;3.00;1.90;;;6.70;69.30;;;;;;6212973;23;20193;-72
2020/12/25 11:18:00;;;;;;;2.78;1.83;;;6.90;67.30;;;;;;6215119;23;20234;-73
2020/12/25 11:20:32;;;;;;;3.05;2.25;;;6.80;66.00;;;;;;6206336;23;20212;-74
2020/12/25 11:23:16;;;;;;;4.25;2.10;;;6.80;66.00;;;;;;6212745;23;20153;-73
2020/12/25 11:25:43;;;;;;;1.90;1.35;;;6.80;66.40;;;;;;6213204;23;20154;-74
2020/12/25 11:28:20;;;;;;;2.50;2.30;;;6.80;66.00;;;;;;6205957;23;20173;-74
2020/12/25 11:30:46;;;;;;;3.45;2.65;;;6.80;66.00;;;;;;6195199;23;20193;-81
2020/12/25 11:33:16;;;;;;;2.30;1.80;;;6.80;66.60;;;;;;6198751;23;20166;-74
2020/12/25 11:35:42;;;;;;;2.75;1.95;;;6.80;65.60;;;;;;6198843;23;20170;-74
2020/12/25 11:38:51;;;;;;;2.28;1.80;;;6.80;65.20;;;;;;6208593;23;20194;-73
2020/12/25 11:41:19;;;;;;;3.33;1.45;;;6.80;65.20;;;;;;6213962;23;20150;-73
2020/12/25 11:43:47;;;;;;;2.45;1.58;;;6.90;64.90;;;;;;6209967;23;20213;-81
2020/12/25 11:46:15;;;;;;;2.00;1.30;;;7.00;64.50;;;;;;6205787;23;20166;-73
2020/12/25 11:48:44;;;;;;;2.72;2.00;;;7.10;64.70;;;;;;6202774;23;20259;-81
2020/12/25 11:54:32;;;;;;;2.05;1.33;;;7.10;64.10;;;;;;6242064;23;20245;-73
2020/12/25 11:57:09;;;;;;;2.10;1.35;;;7.10;63.60;;;;;;6241582;23;20208;-74
2020/12/25 11:59:38;;;;;;;2.20;1.40;;;7.00;63.70;;;;;;6234715;23;20172;-81
2020/12/25 12:02:05;;;;;;;2.85;1.75;;;7.00;64.10;;;;;;6233300;23;20215;-74
2020/12/25 12:04:31;;;;;;;2.53;1.80;;;6.90;64.00;;;;;;6235611;23;20532;-73
2020/12/25 12:06:58;;;;;;;2.83;1.63;;;6.90;64.20;;;;;;6230411;23;20170;-76
2020/12/25 12:09:25;;;;;;;3.25;2.33;;;6.80;64.30;;;;;;6235215;23;20193;-73
2020/12/25 12:11:51;;;;;;;3.08;1.70;;;6.80;64.40;;;;;;6231106;23;20255;-74
2020/12/25 12:14:18;;;;;;;2.13;1.55;;;6.80;64.50;;;;;;6234957;23;20173;-74
2020/12/25 12:17:10;;;;;;;2.47;1.55;;;6.70;64.50;;;;;;6231107;23;20193;-82
2020/12/25 12:19:37;;;;;;;2.47;1.38;;;6.60;65.80;;;;;;6233187;23;20165;-81
2020/12/25 12:22:03;;;;;;;2.33;1.77;;;6.60;65.80;;;;;;6232193;23;20604;-74
2020/12/25 12:24:30;;;;;;;2.60;1.58;;;6.60;66.30;;;;;;6234366;23;20166;-73
2020/12/25 12:26:58;;;;;;;2.00;1.38;;;6.60;66.90;;;;;;6227288;23;20223;-73
2020/12/25 12:29:39;;;;;;;1.98;1.27;;;6.60;67.00;;;;;;6245619;23;20219;-73
2020/12/25 12:32:13;;;;;;;2.20;1.80;;;6.60;67.30;;;;;;6238314;23;20547;-73
2020/12/25 12:35:20;;;;;;;2.28;1.60;;;6.70;67.10;;;;;;6217512;23;20228;-74
2020/12/25 12:37:47;;;;;;;2.10;1.65;;;6.70;67.20;;;;;;6242968;23;20245;-74
2020/12/25 12:40:15;;;;;;;2.20;1.63;;;6.80;67.80;;;;;;6245124;23;20209;-73
2020/12/25 12:42:42;;;;;;;1.80;1.20;;;6.80;67.30;;;;;;6231582;23;20169;-81
2020/12/25 12:45:11;;;;;;;2.67;1.55;;;6.80;66.70;;;;;;6233463;23;20162;-73
2020/12/25 12:48:01;;;;;;;2.38;1.80;;;6.80;67.00;;;;;;6244083;23;20244;-73
2020/12/25 12:50:59;;;;;;;2.80;2.00;;;6.70;66.90;;;;;;6217804;23;20202;-73
2020/12/25 12:53:26;;;;;;;2.28;1.70;;;6.60;67.30;;;;;;6239099;23;20170;-73
2020/12/25 12:55:55;;;;;;;2.05;1.50;;;6.50;67.90;;;;;;6237374;23;20169;-73
2020/12/25 12:58:36;;;;;;;5.20;3.22;;;6.50;68.30;;;;;;6239493;23;20185;-73
2020/12/25 13:01:07;;;;;;;7.35;3.20;;;6.50;68.40;;;;;;6243816;23;20577;-73
2020/12/25 13:03:55;;;;;;;2.97;1.70;;;6.50;68.50;;;;;;6239452;23;20621;-73
2020/12/25 13:09:42;;;;;;;3.13;2.05;;;6.60;68.00;;;;;;6241591;23;20526;-73
2020/12/25 13:12:12;;;;;;;4.20;2.97;;;6.70;67.90;;;;;;6244766;23;20577;-76
2020/12/25 13:14:39;;;;;;;4.75;2.45;;;6.70;66.70;;;;;;6233500;23;20172;-75
2020/12/25 13:17:52;;;;;;;4.25;2.63;;;6.80;66.10;;;;;;6233376;23;20166;-72
2020/12/25 13:20:20;;;;;;;3.42;2.22;;;6.80;66.10;;;;;;6244605;23;20208;-73
2020/12/25 13:22:51;;;;;;;4.30;2.85;;;6.70;64.90;;;;;;6247005;23;20172;-73
2020/12/25 13:28:36;;;;;;;3.05;2.53;;;6.60;65.10;;;;;;6247894;23;20156;-73
2020/12/25 13:37:57;;;;;;;4.32;3.03;;;6.50;64.90;;;;;;6244257;23;20141;-74
2020/12/25 13:43:47;;;;;;;3.67;2.45;;;6.40;65.40;;;;;;6244715;23;20568;-74
2020/12/25 13:46:45;;;;;;;3.25;2.00;;;6.40;65.60;;;;;;6239757;23;20173;-74
2020/12/25 13:49:12;;;;;;;3.10;1.98;;;6.30;65.70;;;;;;6231779;23;20174;-73
2020/12/25 13:51:39;;;;;;;3.22;1.80;;;6.30;65.80;;;;;;6241307;23;20253;-73
2020/12/25 14:00:50;;;;;;;3.30;3.00;;;6.20;66.50;;;;;;6248127;23;20149;-73
2020/12/25 14:06:52;;;;;;;4.32;3.40;;;6.10;66.70;;;;;;6246445;23;20176;-73
2020/12/25 14:09:24;;;;;;;5.07;3.67;;;6.00;66.90;;;;;;6238490;23;20169;-74
2020/12/25 14:11:56;;;;;;;5.18;3.05;;;6.00;67.30;;;;;;6240724;23;20557;-73
2020/12/25 14:14:23;;;;;;;4.03;3.38;;;6.00;67.60;;;;;;6241881;23;20165;-73
2020/12/25 14:17:34;;;;;;;4.43;3.17;;;6.00;68.10;;;;;;6246920;23;20192;-73
2020/12/25 14:20:03;;;;;;;5.25;3.08;;;6.00;67.20;;;;;;6245885;23;20601;-73
2020/12/25 14:22:30;;;;;;;4.40;2.70;;;6.00;67.60;;;;;;6244424;23;20173;-73
2020/12/25 14:28:19;;;;;;;3.78;3.47;;;6.00;68.80;;;;;;6242015;23;20157;-74
2020/12/25 14:30:50;;;;;;;3.60;2.85;;;5.90;68.30;;;;;;6245735;23;20185;-73
2020/12/25 14:33:28;;;;;;;5.03;3.42;;;5.90;68.00;;;;;;6244491;23;20150;-73
2020/12/25 14:35:56;;;;;;;5.60;3.83;;;5.90;68.50;;;;;;6245504;23;20165;-73
2020/12/25 14:38:23;;;;;;;7.47;5.82;;;5.90;68.60;;;;;;6231295;23;20682;-74
2020/12/25 14:40:51;;;;;;;4.38;3.33;;;5.90;68.50;;;;;;6244829;23;20199;-73
2020/12/25 14:53:32;;;;;;;4.28;3.00;;;5.90;68.80;;;;;;6215491;23;20157;-73
2020/12/25 14:59:24;;;;;;;4.10;3.00;;;5.80;70.00;;;;;;6216659;23;20137;-73
2020/12/25 15:02:22;;;;;;;4.15;3.22;;;5.90;72.60;;;;;;6216276;23;20158;-73
2020/12/25 15:04:49;;;;;;;5.75;3.50;;;5.90;70.20;;;;;;6213245;23;20166;-73
2020/12/25 15:07:21;;;;;;;3.80;3.05;;;5.90;69.50;;;;;;6216839;23;20150;-73
2020/12/25 15:10:38;;;;;;;4.07;2.80;;;5.80;69.20;;;;;;6212482;23;20158;-73
2020/12/25 15:13:07;;;;;;;3.92;3.15;;;5.80;69.10;;;;;;6213084;23;20155;-73
2020/12/25 15:15:36;;;;;;;4.88;2.78;;;5.70;69.10;;;;;;6212506;23;20166;-73
2020/12/25 15:18:16;;;;;;;3.15;2.35;;;5.70;68.90;;;;;;6211866;23;20154;-73
2020/12/25 15:20:43;;;;;;;4.55;3.22;;;5.60;68.80;;;;;;6212451;23;20162;-74
2020/12/25 15:23:10;;;;;;;5.13;2.90;;;5.60;69.00;;;;;;6206498;23;20163;-73
2020/12/25 15:25:42;;;;;;;4.10;2.67;;;5.60;69.10;;;;;;6211769;23;20155;-74
2020/12/25 15:28:09;;;;;;;3.80;3.40;;;5.60;69.10;;;;;;6215102;23;20146;-73
2020/12/25 15:34:05;;;;;;;4.57;3.22;;;5.50;69.10;;;;;;6215971;23;20456;-73
2020/12/25 15:37:01;;;;;;;4.50;3.50;;;5.50;69.10;;;;;;6209411;23;20204;-74
2020/12/25 15:39:32;;;;;;;6.30;3.13;;;5.50;69.20;;;;;;6216750;23;20233;-73
2020/12/25 15:42:05;;;;;;;4.55;3.60;;;5.50;69.40;;;;;;6212028;23;20597;-72
2020/12/25 15:44:33;;;;;;;6.15;3.25;;;5.50;69.40;;;;;;6216781;23;20170;-73
2020/12/25 15:47:33;;;;;;;5.55;2.80;;;5.50;69.50;;;;;;6211415;23;20158;-73
2020/12/25 15:50:00;;;;;;;4.72;3.15;;;5.40;69.40;;;;;;6208526;23;20170;-72
2020/12/25 15:52:31;;;;;;;4.18;3.22;;;5.40;69.60;;;;;;6234220;23;20194;-73
2020/12/25 15:54:58;;;;;;;3.70;3.00;;;5.40;69.50;;;;;;6241404;23;20228;-73
2020/12/25 15:57:25;;;;;;;4.68;3.22;;;5.40;69.30;;;;;;6246509;23;20233;-73
2020/12/25 16:04:05;;;;;;;7.57;3.22;;;5.30;69.20;;;;;;6242086;23;20195;-73
2020/12/25 16:06:33;;;;;;;3.92;3.05;;;5.30;69.10;;;;;;6242067;23;20150;-73
2020/12/25 16:12:21;;;;;;;4.43;2.85;;;5.30;69.30;;;;;;6240971;23;20188;-73
2020/12/25 16:14:48;;;;;;;4.50;3.13;;;5.20;69.30;;;;;;6236201;23;20256;-74
2020/12/25 16:17:18;;;;;;;3.72;2.92;;;5.20;69.40;;;;;;6244488;23;20196;-73
2020/12/25 16:19:46;;;;;;;3.83;2.85;;;5.20;69.40;;;;;;6243316;23;20153;-73
2020/12/25 16:22:15;;;;;;;5.35;3.70;;;5.20;69.60;;;;;;6246119;23;20157;-72
2020/12/25 16:24:42;;;;;;;5.10;3.65;;;5.20;69.70;;;;;;6242728;23;20161;-73
2020/12/25 16:30:31;;;;;;;4.95;3.58;;;5.20;70.00;;;;;;6245438;23;20177;-73
2020/12/25 16:33:43;;;;;;;4.72;3.88;;;5.20;70.20;;;;;;6244391;23;20208;-73
2020/12/25 16:36:10;;;;;;;5.72;3.63;;;5.20;70.80;;;;;;6240647;23;20220;-73
2020/12/25 16:42:03;;;;;;;3.63;2.90;;;5.00;72.60;;;;;;6245008;23;20175;-73
2020/12/25 16:44:31;;;;;;;3.75;2.30;;;5.10;76.00;;;;;;6240224;23;20170;-72
2020/12/25 16:53:38;;;;;;;4.15;2.63;;;5.10;73.80;;;;;;6225001;23;20304;-73
2020/12/25 16:56:09;;;;;;;3.13;2.58;;;5.00;73.90;;;;;;6245947;23;20154;-73
2020/12/25 16:58:47;;;;;;;4.05;2.83;;;5.00;74.00;;;;;;6244667;23;20169;-74
2020/12/25 17:01:23;;;;;;;3.10;2.20;;;4.90;74.10;;;;;;6244529;23;20149;-74
2020/12/25 17:03:54;;;;;;;3.53;3.03;;;4.80;74.60;;;;;;6234745;23;20215;-73
2020/12/25 17:06:22;;;;;;;4.90;4.10;;;4.80;75.00;;;;;;6237184;23;20166;-76
2020/12/25 17:08:49;;;;;;;4.82;3.55;;;4.80;75.10;;;;;;6227468;23;20177;-74
2020/12/25 17:11:17;;;;;;;6.00;4.25;;;4.70;75.20;;;;;;6232650;23;20196;-74
2020/12/25 17:13:48;;;;;;;5.57;3.83;;;4.70;75.60;;;;;;6235409;23;20166;-74
2020/12/25 17:16:54;;;;;;;5.43;4.63;;;4.70;75.90;;;;;;6245309;23;20150;-74
2020/12/25 17:19:21;;;;;;;5.05;3.45;;;4.60;76.10;;;;;;6245103;23;20153;-74
2020/12/25 17:26:03;;;;;;;7.57;4.50;;;4.60;77.00;;;;;;6244440;23;20637;-73
2020/12/25 17:28:30;;;;;;;5.28;4.07;;;4.50;77.20;;;;;;6245755;23;20150;-74
2020/12/25 17:30:57;;;;;;;5.20;3.92;;;4.50;77.50;;;;;;6243980;23;20189;-74
2020/12/25 17:33:50;;;;;;;4.72;3.45;;;4.50;77.60;;;;;;6246141;23;20230;-73
2020/12/25 17:36:19;;;;;;;6.10;4.22;;;4.50;77.40;;;;;;6243509;23;20196;-73
2020/12/25 17:38:58;;;;;;;6.57;5.38;;;4.50;77.80;;;;;;6243945;23;20490;-81
2020/12/25 17:41:54;;;;;;;5.18;4.25;;;4.40;77.80;;;;;;6236218;23;20165;-74
2020/12/25 17:44:20;;;;;;;4.53;3.78;;;4.50;78.10;;;;;;6244576;23;20156;-74
2020/12/25 17:47:03;;;;;;;5.80;4.55;;;4.40;78.10;;;;;;6245763;23;20162;-74
2020/12/25 17:49:35;;;;;;;7.05;4.65;;;4.40;78.30;;;;;;6242707;23;20150;-74
2020/12/25 17:52:04;;;;;;;7.43;4.82;;;4.40;78.10;;;;;;6228413;23;20206;-75
2020/12/25 17:54:34;;;;;;;6.70;4.30;;;4.40;78.30;;;;;;6239391;23;20624;-73
2020/12/25 18:00:22;;;;;;;7.65;5.00;;;4.50;78.30;;;;;;6245953;23;20149;-74
2020/12/25 18:02:50;;;;;;;9.98;6.38;;;4.50;78.30;;;;;;6245789;23;20208;-74
2020/12/25 18:05:48;;;;;;;10.38;6.90;;;4.40;78.70;;;;;;6246974;23;20245;-73
2020/12/25 18:08:20;;;;;;;12.07;8.98;;;4.40;79.00;;;;;;6246971;23;20642;-73
2020/12/25 18:10:51;;;;;;;12.02;8.50;;;4.40;79.20;;;;;;6244850;23;20178;-74
2020/12/25 18:20:01;;;;;;;8.15;4.28;;;4.40;79.10;;;;;;6246397;23;20218;-73
2020/12/25 18:23:05;;;;;;;4.78;3.50;;;4.40;78.70;;;;;;6246778;23;20475;-74
2020/12/25 18:28:26;;;;;;;4.20;3.17;;;4.40;78.90;;;;;;6245716;23;20208;-73
2020/12/25 18:30:57;;;;;;;4.72;3.63;;;4.40;78.70;;;;;;6245201;23;20565;-73
2020/12/25 18:33:26;;;;;;;4.47;3.15;;;4.40;78.40;;;;;;6246882;23;20150;-73
2020/12/25 18:39:44;;;;;;;7.32;3.92;;;4.30;78.70;;;;;;6246628;23;20554;-73
2020/12/25 18:45:13;;;;;;;4.25;3.50;;;4.30;78.40;;;;;;6246008;23;20589;-73
2020/12/25 18:51:01;;;;;;;5.45;3.00;;;4.30;77.80;;;;;;6246441;23;20180;-73
2020/12/25 18:56:57;;;;;;;3.65;2.88;;;4.20;77.90;;;;;;6244268;23;20220;-73
2020/12/25 19:00:07;;;;;;;4.07;2.95;;;4.20;77.40;;;;;;6246423;23;20150;-73
2020/12/25 19:05:55;;;;;;;4.00;3.30;;;4.20;77.90;;;;;;6245982;23;20256;-73
2020/12/25 19:11:44;;;;;;;4.28;3.55;;;4.20;77.60;;;;;;6245735;23;20200;-73
2020/12/25 19:20:59;;;;;;;5.80;3.67;;;4.10;77.50;;;;;;6245983;23;20149;-73
2020/12/25 19:23:40;;;;;;;3.85;2.90;;;4.10;78.10;;;;;;6244614;23;20193;-74
2020/12/25 19:26:34;;;;;;;6.45;3.17;;;4.10;79.00;;;;;;6245347;23;20146;-73
2020/12/25 19:29:01;;;;;;;4.20;2.72;;;4.30;80.20;;;;;;6245625;23;20192;-73
2020/12/25 19:31:31;;;;;;;4.10;3.15;;;4.30;77.50;;;;;;6245962;23;20216;-73
2020/12/25 19:41:10;;;;;;;7.55;5.88;;;4.30;75.60;;;;;;6245239;23;20160;-73
2020/12/25 19:50:21;;;;;;;3.90;3.50;;;4.10;74.70;;;;;;6246340;23;20215;-73
2020/12/25 19:56:13;;;;;;;5.82;3.22;;;4.00;72.90;;;;;;6243140;22;20184;-73
2020/12/25 20:02:37;;;;;;;3.03;2.70;;;4.00;72.90;;;;;;6244583;23;20265;-73
2020/12/25 20:08:08;;;;;;;8.25;4.85;;;3.90;73.00;;;;;;6239569;23;20558;-73
2020/12/25 20:10:50;;;;;;;3.78;1.90;;;3.90;72.20;;;;;;6234334;23;20621;-73
2020/12/25 20:16:43;;;;;;;3.72;2.80;;;3.80;72.30;;;;;;6243479;23;20218;-73
2020/12/25 20:19:36;;;;;;;3.85;2.70;;;3.80;71.50;;;;;;6244033;23;20584;-73
2020/12/25 20:22:15;;;;;;;2.47;1.83;;;3.80;71.30;;;;;;6244878;23;20182;-73
2020/12/25 20:28:10;;;;;;;3.25;1.90;;;3.80;71.30;;;;;;6243773;23;20268;-73
2020/12/25 20:30:39;;;;;;;3.05;1.83;;;3.70;70.90;;;;;;6245219;23;20232;-73
2020/12/25 20:33:26;;;;;;;3.35;2.28;;;3.70;70.60;;;;;;6243089;23;20227;-73
2020/12/25 20:36:35;;;;;;;2.72;2.45;;;3.70;70.70;;;;;;6238809;23;20165;-73
2020/12/25 20:39:03;;;;;;;3.47;2.17;;;3.60;70.80;;;;;;6238404;23;20173;-73
2020/12/25 20:41:41;;;;;;;4.25;2.45;;;3.70;70.30;;;;;;6242876;23;20177;-72
2020/12/25 20:44:18;;;;;;;2.72;1.80;;;3.60;70.20;;;;;;6245151;23;20153;-73
2020/12/25 20:46:47;;;;;;;5.72;2.20;;;3.60;69.90;;;;;;6212755;23;20672;-73
2020/12/25 20:49:32;;;;;;;2.42;2.05;;;3.50;70.10;;;;;;6245209;23;20252;-73
2020/12/25 20:52:38;;;;;;;3.97;2.60;;;3.50;70.40;;;;;;6246276;23;20514;-73
2020/12/25 20:55:06;;;;;;;4.20;2.50;;;3.50;70.30;;;;;;6245090;23;20153;-73
2020/12/25 20:58:25;;;;;;;4.53;2.70;;;3.60;70.10;;;;;;6242043;23;20177;-73
2020/12/25 21:04:05;;;;;;;3.20;2.13;;;3.50;70.10;;;;;;6208655;23;20182;-73
2020/12/25 21:06:42;;;;;;;2.75;1.85;;;3.50;69.90;;;;;;6215485;23;20162;-73
2020/12/25 21:09:16;;;;;;;4.35;2.58;;;3.50;69.60;;;;;;6216009;23;20151;-73
2020/12/25 21:18:25;;;;;;;3.70;2.40;;;3.50;69.80;;;;;;6214972;23;20662;-73
2020/12/25 21:21:15;;;;;;;2.90;1.65;;;3.50;69.90;;;;;;6215053;23;20644;-73
2020/12/25 21:27:42;;;;;;;3.45;2.25;;;3.40;69.20;;;;;;6213560;23;20201;-73
2020/12/25 21:30:12;;;;;;;3.33;2.00;;;3.50;69.50;;;;;;6215443;23;20225;-73
2020/12/25 21:36:13;;;;;;;3.33;1.88;;;3.40;69.40;;;;;;6209474;23;20971;-73
2020/12/25 21:42:01;;;;;;;3.60;2.03;;;3.40;69.80;;;;;;6200078;23;20235;-75
2020/12/25 21:44:28;;;;;;;2.97;1.92;;;3.40;68.60;;;;;;6216275;23;20472;-73
2020/12/25 21:46:55;;;;;;;2.92;1.83;;;3.40;68.60;;;;;;6210951;23;20166;-74
2020/12/25 21:49:22;;;;;;;4.05;2.30;;;3.40;68.80;;;;;;6203750;23;20261;-73
2020/12/25 21:55:37;;;;;;;4.60;2.30;;;3.40;68.10;;;;;;6216337;23;20177;-73
2020/12/25 21:58:11;;;;;;;3.10;1.50;;;3.40;67.90;;;;;;6216337;23;20151;-74
2020/12/25 22:00:48;;;;;;;6.57;2.35;;;3.30;68.40;;;;;;6202842;23;20170;-73
2020/12/25 22:03:15;;;;;;;3.47;1.70;;;3.30;69.00;;;;;;6203691;23;20249;-74
2020/12/25 22:09:04;;;;;;;4.00;2.20;;;3.30;69.10;;;;;;6210696;23;20459;-73
2020/12/25 22:11:31;;;;;;;3.35;1.95;;;3.30;68.90;;;;;;6208730;23;20194;-73
2020/12/25 22:17:49;;;;;;;3.13;2.03;;;3.20;69.10;;;;;;6214944;23;20192;-73
2020/12/25 22:20:17;;;;;;;3.97;2.38;;;3.20;69.50;;;;;;6215394;23;20213;-73
2020/12/25 22:22:44;;;;;;;6.35;2.17;;;3.20;69.20;;;;;;6216818;23;20197;-73
2020/12/25 22:29:04;;;;;;;2.65;1.75;;;3.30;69.20;;;;;;6216408;23;20153;-73
2020/12/25 22:31:33;;;;;;;3.38;1.58;;;3.30;69.10;;;;;;6215191;23;20228;-73
2020/12/25 22:34:00;;;;;;;2.63;2.00;;;3.20;68.90;;;;;;6216624;23;20146;-73
2020/12/25 22:36:28;;;;;;;3.58;2.33;;;3.20;68.60;;;;;;6210168;23;20177;-76
2020/12/25 22:38:55;;;;;;;3.78;1.85;;;3.30;68.50;;;;;;6186261;23;20193;-76
2020/12/25 22:41:22;;;;;;;5.03;2.33;;;3.30;67.90;;;;;;6194176;23;20253;-75
2020/12/25 22:43:48;;;;;;;3.40;2.10;;;3.30;68.10;;;;;;6131087;23;20222;-73
2020/12/25 22:46:47;;;;;;;2.38;1.65;;;3.30;68.40;;;;;;6127835;23;20172;-73
2020/12/25 22:52:53;;;;;;;2.80;1.98;;;3.30;69.20;;;;;;6124690;23;20526;-73
2020/12/25 22:55:19;;;;;;;2.80;2.20;;;3.30;69.50;;;;;;6124346;23;20168;-73
2020/12/25 22:57:52;;;;;;;4.03;1.83;;;3.30;69.10;;;;;;6125465;23;20175;-74
2020/12/25 23:00:19;;;;;;;3.58;2.33;;;3.30;69.20;;;;;;6152433;23;20184;-73
2020/12/25 23:02:46;;;;;;;3.75;1.90;;;3.30;68.20;;;;;;6152646;23;20190;-73